메인 페이지
METAR-TAF:

METAR-TAF

공항 :

헨리 코안더 국제공항

부쿠레슈티, 루마니아

위도: 44-33N, 경도: 026-06E, 고도: 95m

현재 날씨관측

예보는 36분 전, 22:30시(UTC)에 발표되었습니다.
동북동7kt
온도 9°C
습도 81%
기압 1024 hPa
시정 10km 이상
고도 5000ft 상공 구름 조금, 적란운.
약한소나기

METAR: LROP 232230Z 06007KT 9999 -SHRA FEW050CB 09/06 Q1024 NOSIG

시각: 02:06 (23:06 UTC)

예보

예보는 6 시간 6분 전, 17:00시(UTC)에 발표되었습니다.
예보 대상 시간: 23일 18시부터 24일 18시까지 (UTC)
12kt
시정 10km 이상
1500m 미만 상공 구름 및 적란운 없음
일시적
23일 18시부터 23일 22시까지 (UTC)
시정: 5000m
고도 3000ft 상공 구름 보통, 적란운.
고도 3500ft 상공 구름 많음
약한소나기

TAF: LROP 231700Z 2318/2418 08012KT CAVOK TEMPO 2318/2322 5000 -SHRA SCT030CB BKN035

4,000개 이상의 공항 관측 자료 및 예보 (METAR 및 TAF 보고).

지도상에서 검색 가능한 기상관측소가 노란 점과 빨간 점으로 표시되어 있습니다.

기상관측소 명을 보려면 표시 위로 마우스를 이동하세요.

날씨 관측과 예보를 보려면 클릭하세요.

지도 변경 : 확대하려면 엑스 표시가 있는 녹색 버튼, 축소하려면 빼기 표시가 있는 녹색 버튼, 다음 페이지의 지도를 보려면 녹색 화살표를 클릭하세요.


METAR-TAF: